Terminal Aerodrome Forecast
Issued by NWS

Home | Current Version | Previous Version | Text Only | Print | Product List | Glossary On
Versions: 1 2 3 4 5 6 7 8 9 10 11 12 13 14 15 16 17 18 19 20 21 22
000
FTUS43 KSGF 031120
TAFJLN
TAF
KJLN 031120Z 0312/0412 10006KT P6SM SCT050 OVC120
     FM032300 12005KT P6SM -RA SCT025 OVC050
     FM040200 13005KT 4SM -RA SCT010 OVC020
     FM040800 11005KT P6SM SCT007 OVC010=

USA.gov is the U.S. government's official web portal to all federal, state and local government web resources and services.